• Join FlightAware (Why Join?)
  • Login
  • US Flag 
02:22PM EDT


 

Airport Tracker/Info


-or-


 

Live Flight TrackerFlight Track Log ✈ UAL1259 ✈ 26-Apr-2013 ✈ KLAX - KDEN

Flight Track Log - Related Links

Times and Time Zones

All times are in EDT time to prevent confusion due to time zone crossing. See the UAL1259 flight status page for this flight to view local times or setup timezone preferences in your user account.

Time Position Orientation Groundspeed Altitude Reporting Facility
EDT Latitude Longitude Course Direction KTS MPH feet Rate Location/Type
09:05PM 33.9310 -118.4630 261° West 217 250 1,800  Level FlightAware
09:06PM 33.9230 -118.4910 251° West 228 262 3,000 2,580 Climbing FlightAware
09:06PM 33.9080 -118.5390 249° West 267 307 4,400 2,460 Climbing FlightAware
09:07PM 33.8940 -118.5690 241° Southwest 272 313 5,500 3,000 Climbing FlightAware
09:07PM 33.8760 -118.5820 211° Southwest 273 314 6,400 3,360 Climbing FlightAware
09:07PM 33.8610 -118.5850 189° South 276 318 6,900 3,000 Climbing FlightAware
09:08PM 33.8220 -118.5820 176° South 288 331 8,400 2,880 Climbing FlightAware
09:08PM 33.8040 -118.5780 170° South 287 330 9,100 3,000 Climbing FlightAware
09:08PM 33.7870 -118.5640 146° Southeast 286 329 9,900 3,000 Climbing FlightAware
09:09PM 33.7740 -118.5300 115° Southeast 283 326 11,100 2,700 Climbing FlightAware
09:09PM 33.7880 -118.4860 69° East 286 329 12,400 1,440 Climbing FlightAware
09:10PM 33.8320 -118.4340 44° Northeast 323 372 12,900 1,260 Climbing FlightAware
09:10PM 33.8820 -118.3860 39° Northeast 352 405 14,200 2,220 Climbing FlightAware
09:11PM 33.9410 -118.3460 29° Northeast 367 422 15,900 2,640 Climbing FlightAware
09:12PM 34.0060 -118.2920 35° Northeast 378 435 18,000 2,640 Climbing FlightAware
09:13PM 34.0450 -118.2270 54° Northeast 380 437 19,700 2,280 Climbing FlightAware
09:13PM 34.0930 -118.1440 55° Northeast 392 451 21,300 2,100 Climbing FlightAware
09:14PM 34.1350 -118.0720 55° Northeast 402 463 22,700 1,980 Climbing FlightAware
09:15PM 34.1770 -117.9970 56° Northeast 410 472 24,000 1,920 Climbing FlightAware
09:15PM 34.2260 -117.9110 55° Northeast 414 476 25,500 1,740 Climbing FlightAware
09:16PM 34.2690 -117.8330 56° Northeast 422 486 26,500 1,380 Climbing FlightAware
09:17PM 34.3180 -117.7460 56° Northeast 432 497 27,500 1,320 Climbing FlightAware
09:17PM 34.3640 -117.6650 55° Northeast 438 504 28,400 1,320 Climbing FlightAware
09:18PM 34.4130 -117.5880 52° Northeast 444 511 29,300 1,260 Climbing FlightAware
09:19PM 34.4760 -117.5000 49° Northeast 451 519 30,200 1,200 Climbing FlightAware
09:20PM 34.5310 -117.4230 49° Northeast 454 522 31,000 1,080 Climbing FlightAware
09:20PM 34.5850 -117.3470 49° Northeast 458 527 31,700 1,200 Climbing FlightAware
09:21PM 34.6460 -117.2600 50° Northeast 457 526 32,700 1,260 Climbing FlightAware
09:22PM 34.7020 -117.1810 49° Northeast 457 526 33,500 1,320 Climbing FlightAware
09:22PM 34.7640 -117.0920 50° Northeast 453 521 34,600 1,200 Climbing FlightAware
09:23PM 34.8170 -117.0150 50° Northeast 454 522 35,200 420 Climbing FlightAware
09:24PM 34.8910 -116.9110 49° Northeast 464 534 35,300 60 Climbing FlightAware
09:25PM 34.9390 -116.8430 49° Northeast 464 534 35,300  Level FlightAware
09:25PM 34.9870 -116.7760 49° Northeast 464 534 35,300  Level FlightAware
09:26PM 35.0350 -116.7090 49° Northeast 464 534 35,300  Level FlightAware
09:27PM 35.0950 -116.6250 49° Northeast 464 534 35,300 960 Level FlightAware
09:28PM 35.2000 -116.4630 52° Northeast 455 524 37,000 1,020 Climbing FlightAware
09:28PM 35.2590 -116.3780 50° Northeast 455 524 37,000  Level FlightAware
09:29PM 35.3190 -116.2910 50° Northeast 457 526 37,000  Level FlightAware
09:30PM 35.3910 -116.1850 50° Northeast 459 528 37,000  Level FlightAware
09:31PM 35.4490 -116.0990 50° Northeast 463 533 37,000  Level FlightAware
09:31PM 35.5090 -116.0110 50° Northeast 463 533 37,000  Level FlightAware
09:32PM 35.5630 -115.9310 50° Northeast 461 531 37,000  Level FlightAware
09:33PM 35.6150 -115.8420 54° Northeast 468 539 37,000  Level FlightAware
09:34PM 35.6570 -115.7340 64° Northeast 468 539 37,000  Level FlightAware
09:34PM 35.6940 -115.6390 64° Northeast 466 536 37,000  Level FlightAware
09:35PM 35.7360 -115.5320 64° Northeast 466 536 37,000  Level FlightAware
09:36PM 35.7730 -115.4360 65° Northeast 466 536 37,000  Level FlightAware
09:36PM 35.8090 -115.3430 64° Northeast 468 539 37,000  Level FlightAware
09:37PM 35.8520 -115.2310 65° Northeast 470 541 37,000  Level FlightAware
09:38PM 35.8900 -115.1330 64° Northeast 472 543 37,000  Level FlightAware
09:38PM 35.9290 -115.0280 65° Northeast 472 543 37,000  Level FlightAware
09:39PM 35.9680 -114.9280 64° Northeast 472 543 37,000  Level FlightAware
09:40PM 36.0110 -114.8160 65° Northeast 467 537 37,000  Level FlightAware
09:41PM 36.0470 -114.7220 65° Northeast 461 531 37,000  Level FlightAware
09:41PM 36.0870 -114.6160 65° Northeast 462 532 37,000  Level FlightAware
09:42PM 36.1220 -114.5220 65° Northeast 461 531 37,000  Level FlightAware
09:43PM 36.1570 -114.4280 65° Northeast 462 532 37,000  Level FlightAware
09:43PM 36.2000 -114.3140 65° Northeast 462 532 37,000  Level FlightAware
09:44PM 36.2350 -114.2190 65° Northeast 464 534 37,000  Level FlightAware
09:45PM 36.2740 -114.1140 65° Northeast 463 533 37,000  Level FlightAware
09:45PM 36.3100 -114.0170 65° Northeast 463 533 37,000  Level FlightAware
09:46PM 36.3460 -113.9210 65° Northeast 463 533 37,000  Level FlightAware
09:47PM 36.3870 -113.8090 66° East 463 533 37,000  Level FlightAware
09:48PM 36.4230 -113.7120 65° Northeast 461 531 37,000  Level FlightAware
09:48PM 36.4580 -113.6170 65° Northeast 460 529 37,000  Level FlightAware
09:49PM 36.4970 -113.5100 66° East 460 529 37,000  Level FlightAware
09:50PM 36.5310 -113.4150 66° East 460 529 37,000  Level FlightAware
09:50PM 36.5720 -113.3030 65° Northeast 458 527 37,000  Level FlightAware
09:51PM 36.6050 -113.2110 66° East 459 528 37,000  Level FlightAware
09:52PM 36.6400 -113.1130 66° East 457 526 37,000  Level FlightAware
09:52PM 36.6780 -113.0080 66° East 455 524 37,000  Level FlightAware
09:53PM 36.7260 -112.8760 66° East 453 521 37,000  Level FlightAware
09:54PM 36.7710 -112.7490 66° East 454 522 37,000  Level FlightAware
09:55PM 36.8190 -112.6110 66° East 452 520 37,000  Level FlightAware
09:56PM 36.8470 -112.5330 66° East 450 518 37,000  Level FlightAware
09:57PM 36.8850 -112.4250 66° East 450 518 37,000  Level FlightAware
09:57PM 36.9140 -112.3440 66° East 450 518 37,000  Level FlightAware
09:58PM 36.9430 -112.2630 66° East 450 518 37,000  Level FlightAware
09:59PM 36.9790 -112.1620 66° East 450 518 37,000  Level FlightAware
09:59PM 37.0080 -112.0810 66° East 450 518 37,000  Level FlightAware
10:00PM 37.0370 -112.0000 66° East 450 518 37,000  Level FlightAware
10:01PM 37.0650 -111.9190 67° East 450 518 37,000  Level FlightAware
10:01PM 37.0940 -111.8380 66° East 450 518 37,000  Level FlightAware
10:02PM 37.1300 -111.7370 66° East 450 518 37,000  Level FlightAware
10:03PM 37.1590 -111.6560 66° East 450 518 37,000  Level FlightAware
10:04PM 37.1880 -111.5750 66° East 450 518 37,000  Level FlightAware
10:04PM 37.2160 -111.4930 67° East 450 518 37,000  Level FlightAware
10:05PM 37.2450 -111.4120 66° East 450 518 37,000  Level FlightAware
10:06PM 37.2810 -111.3110 66° East 450 518 37,000  Level FlightAware
10:07PM 37.3875 -110.9583 66° East 446 513 37,000  Level Denver Center
10:08PM 37.4442 -110.7897 67° East 440 506 37,000  Level Denver Center
10:09PM 37.4922 -110.6472 67° East 444 511 37,000  Level Denver Center
10:10PM 37.5425 -110.4936 68° East 445 512 37,000  Level Denver Center
10:11PM 37.5958 -110.3325 67° East 446 513 37,000  Level Denver Center
10:12PM 37.6561 -110.1481 68° East 445 512 37,000  Level Denver Center
10:13PM 37.7019 -110.0103 67° East 444 511 37,000  Level Denver Center
10:14PM 37.7456 -109.8714 68° East 445 512 37,000  Level Denver Center
10:15PM 37.7972 -109.7117 68° East 440 506 37,000  Level Denver Center
10:17PM 37.8414 -109.5728 68° East 442 509 37,000  Level Denver Center
10:18PM 37.8931 -109.4111 68° East 443 510 37,000  Level Denver Center
10:19PM 37.9375 -109.2714 68° East 445 512 37,000  Level Denver Center
10:20PM 37.9928 -109.1111 66° East 446 513 37,000  Level Denver Center
10:21PM 38.0478 -108.9794 62° Northeast 442 509 37,000  Level Denver Center
10:27PM 38.3960 -108.1140 62° Northeast 447 514 37,000  Level FlightAware
10:27PM 38.4330 -108.0200 63° Northeast 445 512 37,000  Level FlightAware
10:28PM 38.4700 -107.9260 63° Northeast 445 512 37,000  Level FlightAware
10:29PM 38.5140 -107.8140 63° Northeast 445 512 37,000 -480 Level FlightAware
10:31PM 38.6490 -107.4690 63° Northeast 433 498 35,600 -720 Descending FlightAware
10:32PM 38.6900 -107.3630 64° Northeast 435 501 34,800 -1,080 Descending FlightAware
10:33PM 38.7220 -107.2790 64° Northeast 439 505 34,200 -1,020 Descending FlightAware
10:33PM 38.7633 -107.1720 64° Northeast 445 512 33,500 -1,020 Descending FlightAware ADS-B
10:34PM 38.7904 -107.1020 64° Northeast 438 504 33,000 -1,020 Descending FlightAware ADS-B
10:34PM 38.8172 -107.0320 64° Northeast 433 498 32,500 -1,140 Descending FlightAware ADS-B
10:35PM 38.8438 -106.9620 64° Northeast 428 493 31,900 -1,140 Descending FlightAware ADS-B
10:35PM 38.8700 -106.8930 64° Northeast 426 490 31,400 -1,020 Descending FlightAware ADS-B
10:36PM 38.8960 -106.8240 64° Northeast 425 489 30,900 -1,020 Descending FlightAware ADS-B
10:36PM 38.9220 -106.7560 64° Northeast 425 489 30,400 -1,020 Descending FlightAware ADS-B
10:37PM 38.9480 -106.6880 64° Northeast 424 488 29,900 -1,020 Descending FlightAware ADS-B
10:37PM 38.9737 -106.6200 64° Northeast 421 484 29,400 -1,020 Descending FlightAware ADS-B
10:38PM 38.9990 -106.5520 64° Northeast 420 483 28,900 -1,020 Descending FlightAware ADS-B
10:38PM 39.0244 -106.4850 64° Northeast 419 482 28,400 -1,140 Descending FlightAware ADS-B
10:39PM 39.0502 -106.4160 64° Northeast 418 481 27,800 -1,140 Descending FlightAware ADS-B
10:39PM 39.0756 -106.3490 64° Northeast 416 479 27,300 -1,020 Descending FlightAware ADS-B
10:40PM 39.1150 -106.2430 64° Northeast 415 478 26,500 -1,020 Descending FlightAware ADS-B
10:41PM 39.1403 -106.1750 64° Northeast 410 472 26,000 -1,020 Descending FlightAware ADS-B
10:41PM 39.1652 -106.1080 64° Northeast 409 471 25,500 -1,200 Descending FlightAware ADS-B
10:42PM 39.1897 -106.0420 64° Northeast 405 466 24,800 -1,740 Descending FlightAware ADS-B
10:42PM 39.2137 -105.9770 65° Northeast 396 456 23,800 -1,980 Descending FlightAware ADS-B
10:43PM 39.2374 -105.9130 64° Northeast 389 448 22,800 -1,980 Descending FlightAware ADS-B
10:43PM 39.2605 -105.8500 65° Northeast 384 442 21,800 -2,040 Descending FlightAware ADS-B
10:44PM 39.2836 -105.7870 65° Northeast 378 435 20,800 -1,920 Descending FlightAware ADS-B
10:44PM 39.3062 -105.7260 64° Northeast 375 432 19,900 -1,920 Descending FlightAware ADS-B
10:45PM 39.3284 -105.6650 65° Northeast 374 430 18,900 -1,920 Descending FlightAware ADS-B
10:45PM 39.3441 -105.6220 65° Northeast 373 429 18,300 -1,440 Descending FlightAware ADS-B
10:45PM 39.3545 -105.5980 61° Northeast 372 428 18,100 -2,100 Descending FlightAware ADS-B
10:46PM 39.3823 -105.5420 57° Northeast 379 436 16,800 -2,640 Descending FlightAware ADS-B
10:46PM 39.4111 -105.4830 58° Northeast 380 437 15,500 -2,100 Descending FlightAware ADS-B
10:47PM 39.4391 -105.4270 57° Northeast 370 426 14,700 -840 Descending FlightAware ADS-B
10:47PM 39.4671 -105.3700 58° Northeast 371 427 14,700  Level FlightAware ADS-B
10:48PM 39.4953 -105.3130 57° Northeast 372 428 14,700  Level FlightAware ADS-B
10:48PM 39.5245 -105.2530 58° Northeast 373 429 14,700  Level FlightAware ADS-B
10:49PM 39.5571 -105.1870 57° Northeast 373 429 14,700  Level FlightAware ADS-B
10:50PM 39.5891 -105.1210 58° Northeast 376 433 14,700  Level FlightAware ADS-B
10:50PM 39.6246 -105.0490 57° Northeast 378 435 14,700  Level FlightAware ADS-B
10:51PM 39.6560 -104.9840 58° Northeast 378 435 14,700  Level FlightAware ADS-B
10:51PM 39.6850 -104.9240 58° Northeast 379 436 14,700  Level FlightAware ADS-B
10:52PM 39.7181 -104.8560 58° Northeast 379 436 14,700 -960 Level FlightAware ADS-B
10:52PM 39.7399 -104.8120 57° Northeast 375 432 13,800 -2,280 Descending FlightAware ADS-B
10:52PM 39.7494 -104.7970 51° Northeast 371 427 13,500 -1,860 Descending FlightAware ADS-B
10:53PM 39.7545 -104.7900 47° Northeast 369 425 13,400 -2,220 Descending FlightAware ADS-B
10:53PM 39.7637 -104.7820 34° Northeast 365 420 13,100 -2,280 Descending FlightAware ADS-B
10:53PM 39.7774 -104.7730 27° Northeast 360 414 12,800 -1,740 Descending FlightAware ADS-B
10:53PM 39.7853 -104.7700 16° North 359 413 12,700 -1,800 Descending FlightAware ADS-B
10:53PM 39.7935 -104.7680 11° North 356 410 12,500 -2,160 Descending FlightAware ADS-B
10:53PM 39.8077 -104.7670 North 352 405 12,200 -2,040 Descending FlightAware ADS-B
10:53PM 39.8174 -104.7690 351° North 351 404 12,000 -2,520 Descending FlightAware ADS-B
10:53PM 39.8274 -104.7720 347° North 349 402 11,700 -2,340 Descending FlightAware ADS-B
10:53PM 39.8382 -104.7770 340° North 348 400 11,500 -2,100 Descending FlightAware ADS-B
10:54PM 39.8623 -104.7880 341° North 346 398 10,900 -1,800 Descending FlightAware ADS-B
10:54PM 39.8752 -104.7910 350° North 340 391 10,800 -780 Descending FlightAware ADS-B
10:54PM 39.8867 -104.7910 360° North 335 386 10,700 -180 Descending FlightAware ADS-B
10:54PM 39.9306 -104.7900 North 300 345 10,700  Level FlightAware ADS-B
10:55PM 39.9694 -104.7880 North 263 303 10,700 -420 Level FlightAware ADS-B
10:55PM 40.0040 -104.7860 North 242 278 10,300 -1,200 Descending FlightAware ADS-B
10:56PM 40.0224 -104.7860 360° North 244 281 9,800 -1,800 Descending FlightAware ADS-B
10:56PM 40.0394 -104.7850 North 245 282 9,400 -1,800 Descending FlightAware ADS-B
10:56PM 40.0569 -104.7850 360° North 245 282 8,900 -1,920 Descending FlightAware ADS-B
10:56PM 40.0607 -104.7840 11° North 245 282 8,800 -2,040 Descending FlightAware ADS-B
10:56PM 40.0642 -104.7830 12° North 244 281 8,700 -1,740 Descending FlightAware ADS-B
10:56PM 40.0682 -104.7820 11° North 245 282 8,600 -1,800 Descending FlightAware ADS-B
10:56PM 40.0746 -104.7770 31° Northeast 244 281 8,400 -1,380 Descending FlightAware ADS-B
10:57PM 40.0773 -104.7740 40° Northeast 243 280 8,400 -1,500 Level FlightAware ADS-B
10:57PM 40.0808 -104.7690 48° Northeast 242 278 8,200 -2,040 Descending FlightAware ADS-B
10:57PM 40.0833 -104.7650 51° Northeast 242 278 8,100 -1,740 Descending FlightAware ADS-B
10:57PM 40.0850 -104.7600 66° East 241 277 8,000 -2,040 Descending FlightAware ADS-B
10:57PM 40.0863 -104.7560 67° East 240 276 7,900 -1,740 Descending FlightAware ADS-B
10:57PM 40.0870 -104.7510 80° East 239 275 7,800 -900 Descending FlightAware ADS-B
10:57PM 40.0874 -104.7460 84° East 239 275 7,800  Level FlightAware ADS-B
10:57PM 40.0872 -104.7420 94° East 237 273 7,800 -900 Level FlightAware ADS-B
10:57PM 40.0866 -104.7370 99° East 236 272 7,700 -900 Descending FlightAware ADS-B
10:57PM 40.0854 -104.7320 107° East 235 270 7,700  Level FlightAware ADS-B
10:57PM 40.0840 -104.7280 115° Southeast 234 269 7,700  Level FlightAware ADS-B
10:57PM 40.0822 -104.7240 120° Southeast 233 268 7,700  Level FlightAware ADS-B
10:57PM 40.0793 -104.7200 133° Southeast 234 269 7,700  Level FlightAware ADS-B
10:57PM 40.0761 -104.7170 144° Southeast 233 268 7,700  Level FlightAware ADS-B
10:57PM 40.0734 -104.7140 140° Southeast 232 267 7,700  Level FlightAware ADS-B
10:57PM 40.0700 -104.7120 156° South 232 267 7,700  Level FlightAware ADS-B
10:57PM 40.0667 -104.7100 155° Southeast 231 266 7,700  Level FlightAware ADS-B
10:58PM 40.0508 -104.7030 161° South 217 250 7,700  Level FlightAware ADS-B
10:58PM 40.0400 -104.6980 160° South 208 239 7,700  Level FlightAware ADS-B
10:58PM 40.0364 -104.6970 168° South 206 237 7,700  Level FlightAware ADS-B
10:58PM 40.0322 -104.6960 170° South 205 236 7,700  Level FlightAware ADS-B
10:58PM 40.0290 -104.6950 167° South 204 235 7,700 -780 Level FlightAware ADS-B
10:58PM 40.0244 -104.6950 180° South 205 236 7,600 -1,380 Descending FlightAware ADS-B
10:58PM 40.0211 -104.6950 180° South 207 238 7,500 -1,380 Descending FlightAware ADS-B
10:58PM 40.0159 -104.6950 180° South 210 242 7,400 -1,320 Descending FlightAware ADS-B
10:59PM 40.0077 -104.6950 180° South 210 242 7,200 -1,380 Descending FlightAware ADS-B
10:59PM 39.9982 -104.6950 180° South 205 236 7,000 -1,260 Descending FlightAware ADS-B
10:59PM 39.9847 -104.6950 180° South 195 224 6,700 -1,020 Descending FlightAware ADS-B
10:59PM 39.9713 -104.6950 180° South 183 211 6,500 -1,020 Descending FlightAware ADS-B
10:59PM 39.9588 -104.6950 180° South 171 197 6,200 -960 Descending FlightAware ADS-B
11:00PM 39.9508 -104.6950 180° South 161 185 6,100 -660 Descending FlightAware ADS-B
11:00PM 39.9443 -104.6950 180° South 156 180 6,000 -1,020 Descending FlightAware ADS-B
11:00PM 39.9377 -104.6960 187° South 154 177 5,800 -900 Descending FlightAware ADS-B
11:00PM 39.9303 -104.6960 180° South 153 176 5,700 -840 Descending FlightAware ADS-B
11:00PM 39.9265 -104.6960 180° South 152 175 5,600 -840 Descending FlightAware ADS-B
11:00PM 39.9198 -104.6960 180° South 151 174 5,500 -840 Descending FlightAware ADS-B
11:01PM 39.9105 -104.6960 180° South 151 174 5,300 -660 Descending FlightAware ADS-B
11:01PM 39.9068 -104.6960 180° South 151 174 5,300 -660 Level FlightAware ADS-B
11:01PM 39.8975 -104.6960 180° South 151 174 5,100 -660 Descending FlightAware ADS-B
11:01PM 39.8872 -104.6960 180° South 153 176 5,000 -420 Descending FlightAware ADS-B